createdAt,value
2022-11-13T00:00:02.313Z,13.10
2022-11-13T00:02:28.836Z,15.73
2022-11-13T00:04:55.296Z,14.53
2022-11-13T00:07:21.791Z,14.77
2022-11-13T00:09:48.251Z,14.50
2022-11-13T00:12:14.659Z,13.90
2022-11-13T00:14:41.132Z,13.60
2022-11-13T00:17:07.541Z,15.03
2022-11-13T00:19:33.943Z,15.40
2022-11-13T00:22:00.433Z,14.57
2022-11-13T00:24:26.923Z,15.23
2022-11-13T00:26:53.402Z,13.87
2022-11-13T00:29:19.871Z,16.43
2022-11-13T00:31:46.330Z,16.93
2022-11-13T00:34:45.889Z,17.73
2022-11-13T00:36:59.188Z,18.07
2022-11-13T00:39:25.621Z,19.33
2022-11-13T00:41:52.042Z,19.03
2022-11-13T00:44:18.456Z,19.37
2022-11-13T00:46:44.912Z,20.33
2022-11-13T00:49:11.336Z,21.67
2022-11-13T00:51:37.724Z,20.90
2022-11-13T00:54:04.469Z,24.23
2022-11-13T00:56:30.904Z,22.97
2022-11-13T00:58:57.340Z,22.67
2022-11-13T01:01:23.841Z,21.30
2022-11-13T01:03:50.306Z,23.33
2022-11-13T01:06:20.383Z,23.90
2022-11-13T01:08:47.593Z,20.07
2022-11-13T01:11:16.565Z,21.23
2022-11-13T01:13:45.011Z,17.17
2022-11-13T01:16:12.843Z,17.47
2022-11-13T01:18:41.278Z,19.10
2022-11-13T01:21:11.006Z,16.57
2022-11-13T01:23:37.686Z,17.93
2022-11-13T01:26:21.860Z,15.33
2022-11-13T01:28:48.611Z,17.40
2022-11-13T01:31:17.500Z,17.67
2022-11-13T01:33:45.298Z,17.30
2022-11-13T01:36:14.339Z,19.47
2022-11-13T01:38:40.831Z,16.83
2022-11-13T01:41:07.817Z,17.53
2022-11-13T01:43:38.588Z,18.60
2022-11-13T01:46:07.326Z,20.03
2022-11-13T01:48:39.915Z,19.63
2022-11-13T01:51:12.352Z,18.87
2022-11-13T01:53:39.718Z,19.20
2022-11-13T01:56:06.997Z,17.00
2022-11-13T01:58:33.785Z,18.07
2022-11-13T02:01:00.244Z,15.40
2022-11-13T02:03:26.694Z,13.53
2022-11-13T02:05:53.497Z,12.63
2022-11-13T02:08:19.998Z,13.00
2022-11-13T02:10:47.661Z,13.00
2022-11-13T02:13:14.528Z,16.10
2022-11-13T02:15:41.596Z,14.40
2022-11-13T02:18:08.181Z,13.53
2022-11-13T02:20:47.282Z,12.33
2022-11-13T02:23:19.772Z,12.20
2022-11-13T02:25:47.986Z,10.87
2022-11-13T02:28:14.460Z,11.87
2022-11-13T02:30:40.851Z,12.77
2022-11-13T02:33:30.238Z,10.17
2022-11-13T02:35:56.954Z,8.70
2022-11-13T02:38:23.646Z,11.40
2022-11-13T02:40:50.067Z,9.87
2022-11-13T02:43:16.467Z,10.37
2022-11-13T02:45:42.915Z,10.10
2022-11-13T02:48:09.510Z,12.00
2022-11-13T02:50:37.655Z,10.37
2022-11-13T02:53:04.927Z,11.00
2022-11-13T02:55:31.354Z,10.87
2022-11-13T02:57:57.804Z,10.70
2022-11-13T03:00:24.392Z,14.10
2022-11-13T03:02:50.828Z,11.17
2022-11-13T03:05:17.249Z,11.73
2022-11-13T03:07:43.700Z,10.53
2022-11-13T03:10:11.008Z,10.07
2022-11-13T03:12:37.693Z,11.37
2022-11-13T03:15:05.429Z,11.33
2022-11-13T03:17:32.605Z,10.13
2022-11-13T03:19:59.475Z,12.50
2022-11-13T03:22:26.452Z,11.70
2022-11-13T03:24:52.955Z,11.97
2022-11-13T03:27:19.691Z,12.57
2022-11-13T03:29:46.096Z,13.20
2022-11-13T03:32:12.556Z,16.63
2022-11-13T03:34:39.222Z,17.50
2022-11-13T03:37:05.635Z,15.10
2022-11-13T03:39:32.079Z,17.97
2022-11-13T03:41:58.532Z,15.33
2022-11-13T03:44:24.991Z,17.13
2022-11-13T03:46:51.395Z,20.90
2022-11-13T03:49:17.914Z,17.40
2022-11-13T03:51:44.308Z,17.80
2022-11-13T03:54:10.707Z,17.37
2022-11-13T03:56:37.097Z,20.43
2022-11-13T03:59:03.568Z,17.90
2022-11-13T04:01:30.004Z,21.37
2022-11-13T04:03:56.463Z,18.87
2022-11-13T04:06:22.858Z,19.37
2022-11-13T04:08:49.265Z,21.17
2022-11-13T04:11:15.700Z,18.50
2022-11-13T04:13:42.113Z,22.17
2022-11-13T04:16:08.723Z,24.30
2022-11-13T04:18:35.171Z,22.17
2022-11-13T04:21:03.094Z,20.73
2022-11-13T04:23:29.627Z,21.50
2022-11-13T04:25:56.089Z,23.73
2022-11-13T04:28:22.835Z,26.30
2022-11-13T04:30:49.605Z,22.47
2022-11-13T04:33:16.085Z,23.30
2022-11-13T04:35:45.610Z,19.43
2022-11-13T04:38:12.829Z,20.77
2022-11-13T04:40:40.094Z,21.70
2022-11-13T04:43:06.559Z,21.53
2022-11-13T04:45:32.990Z,20.30
2022-11-13T04:47:59.387Z,21.90
2022-11-13T04:50:26.000Z,20.43
2022-11-13T04:52:52.400Z,20.93
2022-11-13T04:55:18.893Z,22.83
2022-11-13T04:57:45.312Z,18.60
2022-11-13T05:00:12.291Z,20.97
2022-11-13T05:02:38.747Z,16.10
2022-11-13T05:05:05.712Z,17.17
2022-11-13T05:07:32.239Z,15.97
2022-11-13T05:09:58.642Z,16.27
2022-11-13T05:12:25.043Z,16.50
2022-11-13T05:14:51.505Z,16.97
2022-11-13T05:17:17.940Z,15.17
2022-11-13T05:19:44.345Z,15.93
2022-11-13T05:22:10.800Z,13.67
2022-11-13T05:24:37.197Z,17.77
2022-11-13T05:27:03.625Z,16.27
2022-11-13T05:29:30.063Z,18.13
2022-11-13T05:31:56.471Z,17.17
2022-11-13T05:34:22.931Z,17.73
2022-11-13T05:36:49.360Z,14.60
2022-11-13T05:39:15.806Z,16.73
2022-11-13T05:41:42.229Z,18.30
2022-11-13T05:44:08.733Z,15.87
2022-11-13T05:46:35.269Z,15.67
2022-11-13T05:49:02.593Z,16.50
2022-11-13T05:51:31.446Z,16.63
2022-11-13T05:53:58.489Z,14.40
2022-11-13T05:56:33.975Z,16.40
2022-11-13T05:59:01.403Z,16.20
2022-11-13T06:01:30.995Z,17.47
2022-11-13T06:03:58.671Z,17.83
2022-11-13T06:06:26.049Z,18.27
2022-11-13T06:08:54.146Z,15.47
2022-11-13T06:11:23.086Z,16.13
2022-11-13T06:13:50.413Z,19.37
2022-11-13T06:16:19.236Z,21.40
2022-11-13T06:18:46.203Z,18.87
2022-11-13T06:21:15.387Z,18.77
2022-11-13T06:23:42.156Z,17.33
2022-11-13T06:26:23.682Z,18.93
2022-11-13T06:28:50.612Z,21.17
2022-11-13T06:31:20.080Z,21.13
2022-11-13T06:33:46.825Z,17.13
2022-11-13T06:36:15.454Z,20.07
2022-11-13T06:38:43.116Z,18.60
2022-11-13T06:41:12.547Z,18.50
2022-11-13T06:43:39.239Z,17.27
2022-11-13T06:46:10.031Z,21.03
2022-11-13T06:48:36.414Z,17.67
2022-11-13T06:51:07.675Z,18.43
2022-11-13T06:53:34.401Z,20.17
2022-11-13T06:56:00.953Z,20.23
2022-11-13T06:58:27.866Z,20.47
2022-11-13T07:00:54.570Z,21.00
2022-11-13T07:03:25.978Z,21.00
2022-11-13T07:05:52.739Z,22.60
2022-11-13T07:08:19.152Z,23.97
2022-11-13T07:10:53.581Z,21.83
2022-11-13T07:13:20.098Z,19.93
2022-11-13T07:15:46.817Z,19.10
2022-11-13T07:18:13.279Z,22.03
2022-11-13T07:20:40.026Z,20.17
2022-11-13T07:23:06.441Z,20.00
2022-11-13T07:25:33.219Z,20.03
2022-11-13T07:27:59.638Z,21.43
2022-11-13T07:30:26.247Z,24.90
2022-11-13T07:32:52.658Z,20.10
2022-11-13T07:35:19.348Z,21.10
2022-11-13T07:37:45.760Z,19.43
2022-11-13T07:40:12.740Z,20.30
2022-11-13T07:42:39.673Z,18.67
2022-11-13T07:45:06.748Z,20.10
2022-11-13T07:47:33.172Z,17.37
2022-11-13T07:50:05.685Z,17.27
2022-11-13T07:52:34.680Z,18.03
2022-11-13T07:55:01.140Z,19.43
2022-11-13T07:57:27.554Z,19.30
2022-11-13T07:59:54.016Z,18.10
2022-11-13T08:02:25.197Z,23.07
2022-11-13T08:04:53.105Z,21.60
2022-11-13T08:07:19.535Z,20.10
2022-11-13T08:09:45.969Z,23.97
2022-11-13T08:12:12.422Z,22.00
2022-11-13T08:14:38.836Z,21.17
2022-11-13T08:17:05.270Z,22.83
2022-11-13T08:19:31.663Z,22.23
2022-11-13T08:21:58.140Z,21.13
2022-11-13T08:24:24.606Z,23.73
2022-11-13T08:26:51.020Z,24.77
2022-11-13T08:29:17.452Z,23.40
2022-11-13T08:31:43.939Z,23.47
2022-11-13T08:34:10.356Z,22.57
2022-11-13T08:36:36.768Z,25.07
2022-11-13T08:39:03.225Z,26.20
2022-11-13T08:41:29.626Z,26.07
2022-11-13T08:43:56.042Z,28.67
2022-11-13T08:46:22.481Z,25.27
2022-11-13T08:48:48.937Z,26.53
2022-11-13T08:51:15.341Z,23.02
2022-11-13T08:53:41.791Z,27.13
2022-11-13T08:56:08.211Z,21.83
2022-11-13T08:58:34.692Z,23.97
2022-11-13T09:01:01.945Z,28.67
2022-11-13T09:03:28.486Z,27.47
2022-11-13T09:05:54.924Z,23.17
2022-11-13T09:08:21.362Z,22.07
2022-11-13T09:10:47.874Z,27.17
2022-11-13T09:13:14.283Z,28.27
2022-11-13T09:15:40.767Z,28.77
2022-11-13T09:18:07.273Z,28.90
2022-11-13T09:20:33.987Z,28.03
2022-11-13T09:23:05.889Z,34.53
2022-11-13T09:25:37.605Z,25.47
2022-11-13T09:28:05.626Z,28.93
2022-11-13T09:30:32.074Z,27.77
2022-11-13T09:33:00.180Z,28.83
2022-11-13T09:35:36.775Z,32.27
2022-11-13T09:38:11.122Z,32.80
2022-11-13T09:40:40.991Z,33.15
2022-11-13T09:43:15.826Z,34.92
2022-11-13T09:45:42.383Z,32.33
2022-11-13T09:48:23.773Z,31.37
2022-11-13T09:50:51.110Z,32.30
2022-11-13T09:53:17.918Z,31.70
2022-11-13T09:56:21.757Z,32.07
2022-11-13T09:59:13.177Z,32.77
2022-11-13T10:01:49.120Z,31.43
2022-11-13T10:04:21.584Z,30.20
2022-11-13T10:07:00.106Z,30.67
2022-11-13T10:09:54.426Z,30.70
2022-11-13T10:12:21.147Z,35.25
2022-11-13T10:14:51.286Z,32.88
2022-11-13T10:17:26.982Z,32.20
2022-11-13T10:19:57.684Z,30.92
2022-11-13T10:22:36.152Z,29.25
2022-11-13T10:25:22.942Z,32.28
2022-11-13T10:27:58.986Z,30.58
2022-11-13T10:30:25.691Z,32.78
2022-11-13T10:32:52.560Z,30.52
2022-11-13T10:35:45.507Z,29.17
2022-11-13T10:38:23.541Z,35.65
2022-11-13T10:40:49.989Z,32.03
2022-11-13T10:43:24.615Z,32.40
2022-11-13T10:46:00.412Z,38.42
2022-11-13T10:48:35.455Z,31.45
2022-11-13T10:51:04.383Z,39.08
2022-11-13T10:53:39.459Z,33.97
2022-11-13T10:56:30.050Z,29.20
2022-11-13T10:59:17.157Z,32.35
2022-11-13T11:01:45.570Z,31.42
2022-11-13T11:04:27.443Z,32.67
2022-11-13T11:07:19.226Z,29.67
2022-11-13T11:09:43.129Z,31.08
2022-11-13T11:12:16.651Z,30.05
2022-11-13T11:14:58.714Z,33.58
2022-11-13T11:17:47.375Z,31.25
2022-11-13T11:20:21.899Z,37.00
2022-11-13T11:22:57.365Z,33.63
2022-11-13T11:25:38.913Z,31.45
2022-11-13T11:28:19.913Z,34.28
2022-11-13T11:30:52.523Z,28.77
2022-11-13T11:33:23.482Z,32.25
2022-11-13T11:35:56.060Z,35.05
2022-11-13T11:38:31.080Z,31.02
2022-11-13T11:41:13.355Z,30.75
2022-11-13T11:43:45.838Z,31.25
2022-11-13T11:46:22.841Z,32.17
2022-11-13T11:48:49.868Z,31.85
2022-11-13T11:51:19.195Z,32.10
2022-11-13T11:53:58.016Z,30.30
2022-11-13T11:56:40.432Z,27.73
2022-11-13T11:59:13.197Z,31.10
2022-11-13T12:02:05.880Z,32.10
2022-11-13T12:04:52.197Z,27.88
2022-11-13T12:07:55.755Z,30.92
2022-11-13T12:10:45.322Z,31.00
2022-11-13T12:13:25.981Z,29.83
2022-11-13T12:16:09.508Z,32.15
2022-11-13T12:18:54.148Z,29.55
2022-11-13T12:21:23.795Z,31.98
2022-11-13T12:24:01.672Z,31.27
2022-11-13T12:26:59.065Z,31.73
2022-11-13T12:29:44.280Z,30.05
2022-11-13T12:32:46.916Z,30.75
2022-11-13T12:35:19.035Z,30.02
2022-11-13T12:37:51.618Z,29.23
2022-11-13T12:40:44.705Z,29.50
2022-11-13T12:43:29.794Z,28.38
2022-11-13T12:46:00.553Z,29.38
2022-11-13T12:48:41.925Z,29.65
2022-11-13T12:51:13.581Z,32.88
2022-11-13T12:54:06.398Z,30.52
2022-11-13T12:56:33.636Z,29.88
2022-11-13T12:59:33.809Z,32.80
2022-11-13T13:02:40.388Z,28.70
2022-11-13T13:05:15.907Z,30.70
2022-11-13T13:08:18.387Z,31.08
2022-11-13T13:11:19.635Z,27.50
2022-11-13T13:13:46.012Z,28.63
2022-11-13T13:16:21.977Z,27.52
2022-11-13T13:18:48.672Z,33.22
2022-11-13T13:21:17.601Z,30.08
2022-11-13T13:23:46.290Z,29.80
2022-11-13T13:26:15.903Z,26.80
2022-11-13T13:28:46.925Z,34.88
2022-11-13T13:31:20.106Z,30.05
2022-11-13T13:33:54.120Z,33.72
2022-11-13T13:36:36.322Z,30.33
2022-11-13T13:39:20.905Z,36.13
2022-11-13T13:42:09.096Z,31.17
2022-11-13T13:45:14.272Z,33.83
2022-11-13T13:47:45.264Z,30.75
2022-11-13T13:50:16.557Z,32.80
2022-11-13T13:52:43.748Z,33.05
2022-11-13T13:55:19.189Z,28.17
2022-11-13T13:57:45.997Z,31.50
2022-11-13T14:00:13.691Z,30.75
2022-11-13T14:02:51.592Z,32.92
2022-11-13T14:05:32.939Z,32.33
2022-11-13T14:08:00.738Z,37.55
2022-11-13T14:10:28.561Z,34.13
2022-11-13T14:12:56.087Z,31.08
2022-11-13T14:15:24.057Z,30.73
2022-11-13T14:17:50.724Z,30.88
2022-11-13T14:20:18.455Z,31.63
2022-11-13T14:22:51.709Z,29.98
2022-11-13T14:25:27.225Z,28.08
2022-11-13T14:27:53.756Z,28.85
2022-11-13T14:30:26.665Z,29.27
2022-11-13T14:32:53.601Z,26.70
2022-11-13T14:35:25.212Z,27.85
2022-11-13T14:37:52.803Z,26.95
2022-11-13T14:40:22.832Z,29.08
2022-11-13T14:42:55.921Z,27.58
2022-11-13T14:45:24.739Z,30.27
2022-11-13T14:48:20.620Z,29.90
2022-11-13T14:50:59.336Z,31.83
2022-11-13T14:53:31.241Z,29.77
2022-11-13T14:56:01.426Z,27.27
2022-11-13T14:58:29.722Z,28.23
2022-11-13T15:00:57.566Z,25.95
2022-11-13T15:03:24.246Z,24.60
2022-11-13T15:05:50.736Z,26.67
2022-11-13T15:08:17.358Z,25.08
2022-11-13T15:10:43.785Z,24.65
2022-11-13T15:13:15.198Z,25.23
2022-11-13T15:15:41.834Z,22.70
2022-11-13T15:18:16.253Z,23.95
2022-11-13T15:20:43.181Z,25.50
2022-11-13T15:23:13.600Z,24.98
2022-11-13T15:25:40.045Z,23.63
2022-11-13T15:28:06.503Z,25.05
2022-11-13T15:30:32.924Z,21.35
2022-11-13T15:32:59.383Z,24.40
2022-11-13T15:35:25.813Z,24.67
2022-11-13T15:37:52.702Z,21.58
2022-11-13T15:40:19.269Z,22.05
2022-11-13T15:42:45.933Z,22.70
2022-11-13T15:45:16.350Z,26.42
2022-11-13T15:47:43.001Z,22.88
2022-11-13T15:50:14.393Z,26.08
2022-11-13T15:52:45.117Z,23.20
2022-11-13T15:55:29.151Z,23.90
2022-11-13T15:57:56.084Z,24.02
2022-11-13T16:00:25.138Z,23.58
2022-11-13T16:02:56.668Z,23.75
2022-11-13T16:05:25.228Z,23.23
2022-11-13T16:07:52.834Z,25.02
2022-11-13T16:10:20.534Z,25.90
2022-11-13T16:12:47.020Z,25.45
2022-11-13T16:15:16.580Z,28.95
2022-11-13T16:17:45.143Z,29.35
2022-11-13T16:20:15.308Z,35.38
2022-11-13T16:22:42.017Z,32.58
2022-11-13T16:25:14.279Z,28.87
2022-11-13T16:27:40.838Z,31.73
2022-11-13T16:30:14.097Z,28.60
2022-11-13T16:32:40.486Z,27.67
2022-11-13T16:35:08.433Z,29.85
2022-11-13T16:37:35.360Z,30.25
2022-11-13T16:40:01.876Z,32.27
2022-11-13T16:42:31.017Z,31.17
2022-11-13T16:44:57.594Z,29.90
2022-11-13T16:47:25.450Z,30.97
2022-11-13T16:49:52.551Z,26.83
2022-11-13T16:52:19.092Z,29.70
2022-11-13T16:54:45.601Z,28.97
2022-11-13T16:57:13.266Z,28.77
2022-11-13T16:59:40.407Z,28.27
2022-11-13T17:02:17.376Z,28.83
2022-11-13T17:04:44.360Z,29.57
2022-11-13T17:07:13.032Z,29.37
2022-11-13T17:09:45.867Z,24.57
2022-11-13T17:12:12.308Z,29.37
2022-11-13T17:14:39.060Z,28.47
2022-11-13T17:17:07.237Z,27.73
2022-11-13T17:19:33.719Z,28.87
2022-11-13T17:22:00.468Z,29.60
2022-11-13T17:24:26.977Z,29.70
2022-11-13T17:26:53.375Z,30.93
2022-11-13T17:29:19.834Z,30.93
2022-11-13T17:31:46.269Z,27.30
2022-11-13T17:34:12.671Z,30.27
2022-11-13T17:36:39.098Z,30.27
2022-11-13T17:39:05.522Z,28.10
2022-11-13T17:41:31.948Z,28.33
2022-11-13T17:44:01.269Z,26.57
2022-11-13T17:46:28.048Z,26.80
2022-11-13T17:48:54.457Z,30.80
2022-11-13T17:51:21.029Z,25.43
2022-11-13T17:53:47.431Z,25.80
2022-11-13T17:56:14.222Z,27.80
2022-11-13T17:58:45.211Z,27.43
2022-11-13T18:01:22.150Z,25.73
2022-11-13T18:03:54.280Z,26.70
2022-11-13T18:06:21.121Z,27.97
2022-11-13T18:08:47.537Z,31.03
2022-11-13T18:11:19.315Z,26.67
2022-11-13T18:13:49.997Z,26.60
2022-11-13T18:16:19.547Z,26.63
2022-11-13T18:18:51.236Z,25.03
2022-11-13T18:21:22.729Z,27.50
2022-11-13T18:23:50.014Z,28.27
2022-11-13T18:26:18.543Z,27.10
2022-11-13T18:28:45.141Z,26.57
2022-11-13T18:31:15.006Z,25.03
2022-11-13T18:33:41.645Z,26.47
2022-11-13T18:36:08.851Z,23.80
2022-11-13T18:38:35.513Z,27.97
2022-11-13T18:41:10.737Z,24.87
2022-11-13T18:43:37.683Z,25.17
2022-11-13T18:46:06.916Z,24.17
2022-11-13T18:48:41.642Z,24.50
2022-11-13T18:51:14.628Z,25.30
2022-11-13T18:53:41.925Z,26.53
2022-11-13T18:56:11.182Z,21.53
2022-11-13T18:58:43.481Z,27.23
2022-11-13T19:01:15.083Z,24.67
2022-11-13T19:04:08.172Z,23.87
2022-11-13T19:06:31.189Z,20.77
2022-11-13T19:08:58.994Z,23.30
2022-11-13T19:11:26.479Z,24.37
2022-11-13T19:13:53.502Z,27.93
2022-11-13T19:16:23.139Z,32.33
2022-11-13T19:18:52.356Z,29.43
2022-11-13T19:21:19.882Z,26.90
2022-11-13T19:23:46.273Z,26.70
2022-11-13T19:26:12.762Z,25.47
2022-11-13T19:28:39.263Z,29.10
2022-11-13T19:31:12.976Z,24.27
2022-11-13T19:33:39.781Z,29.27
2022-11-13T19:36:08.755Z,26.03
2022-11-13T19:38:35.863Z,27.93
2022-11-13T19:41:02.909Z,23.87
2022-11-13T19:43:33.742Z,26.37
2022-11-13T19:46:08.178Z,28.23
2022-11-13T19:48:36.091Z,25.97
2022-11-13T19:51:09.629Z,24.07
2022-11-13T19:53:36.846Z,25.80
2022-11-13T19:56:03.878Z,21.37
2022-11-13T19:58:30.853Z,21.97
2022-11-13T20:00:57.854Z,24.30
2022-11-13T20:03:26.011Z,20.63
2022-11-13T20:05:59.251Z,20.00
2022-11-13T20:08:28.123Z,22.83
2022-11-13T20:11:01.392Z,20.90
2022-11-13T20:13:27.842Z,22.50
2022-11-13T20:15:54.742Z,22.10
2022-11-13T20:18:21.182Z,23.30
2022-11-13T20:20:51.799Z,25.37
2022-11-13T20:23:21.166Z,23.20
2022-11-13T20:25:54.681Z,20.47
2022-11-13T20:28:21.433Z,23.07
2022-11-13T20:30:47.851Z,22.07
2022-11-13T20:33:18.482Z,22.80
2022-11-13T20:35:53.800Z,21.63
2022-11-13T20:38:20.214Z,22.37
2022-11-13T20:40:46.616Z,24.17
2022-11-13T20:43:13.010Z,23.97
2022-11-13T20:45:39.420Z,23.87
2022-11-13T20:48:05.949Z,25.03
2022-11-13T20:50:35.677Z,21.90
2022-11-13T20:53:02.111Z,23.07
2022-11-13T20:55:28.578Z,24.20
2022-11-13T20:57:54.999Z,21.17
2022-11-13T21:00:21.547Z,25.43
2022-11-13T21:02:48.177Z,24.23
2022-11-13T21:05:15.360Z,22.07
2022-11-13T21:07:41.775Z,26.77
2022-11-13T21:10:08.593Z,26.33
2022-11-13T21:12:35.132Z,22.67
2022-11-13T21:15:01.664Z,23.47
2022-11-13T21:17:28.073Z,22.47
2022-11-13T21:19:57.580Z,21.77
2022-11-13T21:22:24.255Z,25.40
2022-11-13T21:24:50.664Z,22.50
2022-11-13T21:27:17.102Z,22.37
2022-11-13T21:29:43.555Z,22.10
2022-11-13T21:32:09.970Z,27.30
2022-11-13T21:34:36.413Z,25.97
2022-11-13T21:37:02.851Z,27.10
2022-11-13T21:39:29.374Z,26.30
2022-11-13T21:41:55.765Z,23.40
2022-11-13T21:44:22.200Z,26.00
2022-11-13T21:46:48.624Z,23.67
2022-11-13T21:49:15.057Z,24.70
2022-11-13T21:51:42.872Z,23.63
2022-11-13T21:54:09.691Z,22.70
2022-11-13T21:56:37.721Z,21.90
2022-11-13T21:59:05.120Z,22.97
2022-11-13T22:01:37.771Z,29.07
2022-11-13T22:04:05.233Z,23.10
2022-11-13T22:06:33.272Z,25.50
2022-11-13T22:09:02.017Z,25.50
2022-11-13T22:11:30.925Z,23.50
2022-11-13T22:13:57.691Z,27.33
2022-11-13T22:16:25.293Z,25.73
2022-11-13T22:18:55.836Z,19.83
2022-11-13T22:21:23.337Z,24.87
2022-11-13T22:23:50.216Z,25.57
2022-11-13T22:26:17.417Z,26.47
2022-11-13T22:28:44.966Z,25.30
2022-11-13T22:31:16.975Z,25.23
2022-11-13T22:33:47.807Z,24.97
2022-11-13T22:36:18.454Z,22.33
2022-11-13T22:38:44.938Z,22.20
2022-11-13T22:41:22.568Z,27.63
2022-11-13T22:44:00.683Z,27.40
2022-11-13T22:46:29.162Z,23.70
2022-11-13T22:48:57.429Z,25.47
2022-11-13T22:51:31.853Z,24.20
2022-11-13T22:54:00.456Z,26.13
2022-11-13T22:56:29.329Z,28.13
2022-11-13T22:58:57.087Z,25.07
2022-11-13T23:01:32.132Z,29.30
2022-11-13T23:04:01.186Z,24.53
2022-11-13T23:06:29.326Z,28.27
2022-11-13T23:08:55.792Z,31.00
2022-11-13T23:11:26.432Z,31.20
2022-11-13T23:13:55.170Z,26.00
2022-11-13T23:16:22.804Z,30.50
2022-11-13T23:18:50.416Z,27.17
2022-11-13T23:21:17.574Z,24.73
2022-11-13T23:23:44.194Z,28.90
2022-11-13T23:26:11.481Z,25.90
2022-11-13T23:28:39.431Z,27.23
2022-11-13T23:31:06.129Z,29.50
2022-11-13T23:33:32.553Z,26.10
2022-11-13T23:35:59.347Z,26.73
2022-11-13T23:38:25.951Z,27.03
2022-11-13T23:40:54.464Z,24.80
2022-11-13T23:43:21.161Z,28.73
2022-11-13T23:45:47.574Z,24.67
2022-11-13T23:48:14.012Z,27.70
2022-11-13T23:50:40.483Z,27.60
2022-11-13T23:53:06.888Z,27.03
2022-11-13T23:55:33.436Z,24.57
2022-11-13T23:58:01.065Z,24.53
